sensor_id;sensor_type;location;lat;lon;timestamp;pressure;altitude;pressure_sealevel;temperature;humidity
66762;BME280;53672;48.176;16.338;2023-02-28T00:00:46;100112.50;;;-0.19;67.00
66762;BME280;53672;48.176;16.338;2023-02-28T00:05:46;100117.34;;;-0.23;67.26
66762;BME280;53672;48.176;16.338;2023-02-28T00:10:47;100119.56;;;-0.26;66.40
66762;BME280;53672;48.176;16.338;2023-02-28T00:15:58;100116.00;;;-0.33;67.61
66762;BME280;53672;48.176;16.338;2023-02-28T00:20:59;100119.84;;;-0.36;67.92
66762;BME280;53672;48.176;16.338;2023-02-28T00:26:00;100113.47;;;-0.41;68.13
66762;BME280;53672;48.176;16.338;2023-02-28T00:31:02;100122.44;;;-0.42;67.84
66762;BME280;53672;48.176;16.338;2023-02-28T00:36:04;100128.53;;;-0.42;68.17
66762;BME280;53672;48.176;16.338;2023-02-28T00:41:05;100127.06;;;-0.44;68.27
66762;BME280;53672;48.176;16.338;2023-02-28T00:46:07;100119.78;;;-0.42;67.69
66762;BME280;53672;48.176;16.338;2023-02-28T00:51:09;100116.06;;;-0.48;67.58
66762;BME280;53672;48.176;16.338;2023-02-28T00:56:10;100120.16;;;-0.45;67.44
66762;BME280;53672;48.176;16.338;2023-02-28T01:01:12;100120.06;;;-0.52;67.98
66762;BME280;53672;48.176;16.338;2023-02-28T01:06:12;100118.41;;;-0.53;67.98
66762;BME280;53672;48.176;16.338;2023-02-28T01:11:15;100124.72;;;-0.54;68.19
66762;BME280;53672;48.176;16.338;2023-02-28T01:16:18;100123.53;;;-0.52;67.25
66762;BME280;53672;48.176;16.338;2023-02-28T01:21:20;100120.44;;;-0.55;67.77
66762;BME280;53672;48.176;16.338;2023-02-28T01:26:22;100122.97;;;-0.47;67.11
66762;BME280;53672;48.176;16.338;2023-02-28T01:31:24;100129.47;;;-0.49;67.40
66762;BME280;53672;48.176;16.338;2023-02-28T01:36:25;100128.47;;;-0.48;67.46
66762;BME280;53672;48.176;16.338;2023-02-28T01:41:28;100130.00;;;-0.39;67.47
66762;BME280;53672;48.176;16.338;2023-02-28T01:46:32;100128.41;;;-0.34;66.70
66762;BME280;53672;48.176;16.338;2023-02-28T01:51:38;100135.38;;;-0.33;67.04
66762;BME280;53672;48.176;16.338;2023-02-28T01:56:43;100136.81;;;-0.30;66.63
66762;BME280;53672;48.176;16.338;2023-02-28T02:01:45;100132.47;;;-0.38;66.42
66762;BME280;53672;48.176;16.338;2023-02-28T02:06:47;100139.38;;;-0.37;66.45
66762;BME280;53672;48.176;16.338;2023-02-28T02:11:48;100133.84;;;-0.42;66.92
66762;BME280;53672;48.176;16.338;2023-02-28T02:17:03;100135.66;;;-0.42;67.06
66762;BME280;53672;48.176;16.338;2023-02-28T02:22:27;100138.41;;;-0.51;67.41
66762;BME280;53672;48.176;16.338;2023-02-28T02:28:22;100139.69;;;-0.61;67.83
66762;BME280;53672;48.176;16.338;2023-02-28T02:34:07;100133.13;;;-0.65;67.89
66762;BME280;53672;48.176;16.338;2023-02-28T02:39:14;100139.50;;;-0.60;67.31
66762;BME280;53672;48.176;16.338;2023-02-28T02:44:21;100136.13;;;-0.68;67.48
66762;BME280;53672;48.176;16.338;2023-02-28T02:49:30;100129.59;;;-0.72;67.87
66762;BME280;53672;48.176;16.338;2023-02-28T02:54:36;100132.13;;;-0.64;67.79
66762;BME280;53672;48.176;16.338;2023-02-28T02:59:39;100138.78;;;-0.68;67.47
66762;BME280;53672;48.176;16.338;2023-02-28T03:04:43;100131.47;;;-0.81;67.94
66762;BME280;53672;48.176;16.338;2023-02-28T03:09:50;100136.84;;;-0.89;69.02
66762;BME280;53672;48.176;16.338;2023-02-28T03:14:58;100140.22;;;-0.95;69.67
66762;BME280;53672;48.176;16.338;2023-02-28T03:20:10;100128.03;;;-0.96;69.63
66762;BME280;53672;48.176;16.338;2023-02-28T03:25:18;100132.41;;;-1.03;69.89
66762;BME280;53672;48.176;16.338;2023-02-28T03:30:24;100125.06;;;-1.16;70.61
66762;BME280;53672;48.176;16.338;2023-02-28T03:35:32;100126.16;;;-1.25;71.87
66762;BME280;53672;48.176;16.338;2023-02-28T03:40:34;100126.22;;;-1.33;71.66
66762;BME280;53672;48.176;16.338;2023-02-28T03:45:39;100122.28;;;-1.37;72.69
66762;BME280;53672;48.176;16.338;2023-02-28T03:50:45;100132.22;;;-1.39;72.54
66762;BME280;53672;48.176;16.338;2023-02-28T03:55:54;100125.16;;;-1.24;71.20
66762;BME280;53672;48.176;16.338;2023-02-28T04:01:00;100123.44;;;-1.17;71.10
66762;BME280;53672;48.176;16.338;2023-02-28T04:06:06;100125.09;;;-1.01;70.76
66762;BME280;53672;48.176;16.338;2023-02-28T04:11:16;100127.28;;;-0.90;71.04
66762;BME280;53672;48.176;16.338;2023-02-28T04:16:18;100126.72;;;-0.85;69.99
66762;BME280;53672;48.176;16.338;2023-02-28T04:21:20;100137.97;;;-0.83;70.59
66762;BME280;53672;48.176;16.338;2023-02-28T04:26:20;100130.56;;;-0.88;70.57
66762;BME280;53672;48.176;16.338;2023-02-28T04:31:21;100142.88;;;-0.95;70.76
66762;BME280;53672;48.176;16.338;2023-02-28T04:36:23;100141.78;;;-1.00;71.43
66762;BME280;53672;48.176;16.338;2023-02-28T04:41:24;100144.03;;;-1.12;72.09
66762;BME280;53672;48.176;16.338;2023-02-28T04:46:24;100144.22;;;-1.14;73.06
66762;BME280;53672;48.176;16.338;2023-02-28T04:51:26;100135.56;;;-1.08;72.06
66762;BME280;53672;48.176;16.338;2023-02-28T04:56:27;100134.22;;;-1.04;71.88
66762;BME280;53672;48.176;16.338;2023-02-28T05:01:29;100137.94;;;-0.98;71.51
66762;BME280;53672;48.176;16.338;2023-02-28T05:06:32;100144.97;;;-1.05;72.05
66762;BME280;53672;48.176;16.338;2023-02-28T05:11:34;100145.63;;;-1.03;71.73
66762;BME280;53672;48.176;16.338;2023-02-28T05:16:35;100152.25;;;-0.92;71.76
66762;BME280;53672;48.176;16.338;2023-02-28T05:21:38;100140.13;;;-1.02;71.92
66762;BME280;53672;48.176;16.338;2023-02-28T05:26:40;100138.69;;;-1.04;72.82
66762;BME280;53672;48.176;16.338;2023-02-28T05:31:41;100142.69;;;-1.08;72.74
66762;BME280;53672;48.176;16.338;2023-02-28T05:36:43;100146.69;;;-1.12;73.46
66762;BME280;53672;48.176;16.338;2023-02-28T05:41:43;100153.78;;;-1.13;73.90
66762;BME280;53672;48.176;16.338;2023-02-28T05:46:44;100163.75;;;-1.15;74.70
66762;BME280;53672;48.176;16.338;2023-02-28T05:51:46;100172.50;;;-1.14;74.82
66762;BME280;53672;48.176;16.338;2023-02-28T05:56:46;100178.06;;;-1.09;75.01
66762;BME280;53672;48.176;16.338;2023-02-28T06:01:47;100173.06;;;-1.04;76.16
66762;BME280;53672;48.176;16.338;2023-02-28T06:06:50;100176.97;;;-1.15;76.73
66762;BME280;53672;48.176;16.338;2023-02-28T06:11:50;100184.53;;;-1.12;76.99
66762;BME280;53672;48.176;16.338;2023-02-28T06:16:51;100184.00;;;-1.07;77.50
66762;BME280;53672;48.176;16.338;2023-02-28T06:21:53;100186.56;;;-0.99;76.70
66762;BME280;53672;48.176;16.338;2023-02-28T06:26:55;100191.63;;;-0.89;76.62
66762;BME280;53672;48.176;16.338;2023-02-28T06:31:55;100193.69;;;-0.85;76.26
66762;BME280;53672;48.176;16.338;2023-02-28T06:36:57;100200.00;;;-0.71;76.00
66762;BME280;53672;48.176;16.338;2023-02-28T06:41:58;100203.94;;;-0.67;75.62
66762;BME280;53672;48.176;16.338;2023-02-28T06:46:58;100202.75;;;-0.65;74.30
66762;BME280;53672;48.176;16.338;2023-02-28T06:52:00;100211.06;;;-0.53;73.88
66762;BME280;53672;48.176;16.338;2023-02-28T06:57:01;100213.09;;;-0.55;73.48
66762;BME280;53672;48.176;16.338;2023-02-28T07:02:02;100217.38;;;-0.54;73.18
66762;BME280;53672;48.176;16.338;2023-02-28T07:07:04;100217.09;;;-0.44;72.54
66762;BME280;53672;48.176;16.338;2023-02-28T07:12:04;100210.47;;;0.10;70.72
66762;BME280;53672;48.176;16.338;2023-02-28T07:17:06;100210.13;;;-0.16;70.15
66762;BME280;53672;48.176;16.338;2023-02-28T07:22:08;100208.16;;;-0.29;71.22
66762;BME280;53672;48.176;16.338;2023-02-28T07:27:09;100210.28;;;0.12;70.49
66762;BME280;53672;48.176;16.338;2023-02-28T07:32:09;100220.44;;;0.65;68.35
66762;BME280;53672;48.176;16.338;2023-02-28T07:37:11;100224.97;;;0.50;67.55
66762;BME280;53672;48.176;16.338;2023-02-28T07:42:12;100229.81;;;0.11;69.68
66762;BME280;53672;48.176;16.338;2023-02-28T07:47:12;100231.31;;;-0.02;70.68
66762;BME280;53672;48.176;16.338;2023-02-28T07:52:14;100241.47;;;0.10;70.30
66762;BME280;53672;48.176;16.338;2023-02-28T07:57:15;100238.88;;;0.73;69.39
66762;BME280;53672;48.176;16.338;2023-02-28T08:02:16;100244.78;;;1.18;67.43
66762;BME280;53672;48.176;16.338;2023-02-28T08:07:19;100255.06;;;0.57;67.97
66762;BME280;53672;48.176;16.338;2023-02-28T08:12:19;100247.88;;;1.49;65.36
66762;BME280;53672;48.176;16.338;2023-02-28T08:17:20;100244.38;;;1.76;64.95
66762;BME280;53672;48.176;16.338;2023-02-28T08:22:21;100240.09;;;2.23;63.02
66762;BME280;53672;48.176;16.338;2023-02-28T08:27:22;100251.31;;;2.12;62.05
66762;BME280;53672;48.176;16.338;2023-02-28T08:32:23;100250.50;;;2.98;60.15
66762;BME280;53672;48.176;16.338;2023-02-28T08:37:25;100257.66;;;4.34;52.94
66762;BME280;53672;48.176;16.338;2023-02-28T08:42:25;100243.34;;;6.08;50.15
66762;BME280;53672;48.176;16.338;2023-02-28T08:47:26;100255.59;;;6.93;46.14
66762;BME280;53672;48.176;16.338;2023-02-28T08:52:28;100256.38;;;7.93;45.30
66762;BME280;53672;48.176;16.338;2023-02-28T08:57:28;100268.38;;;8.02;42.40
66762;BME280;53672;48.176;16.338;2023-02-28T09:02:29;100255.66;;;6.45;46.44
66762;BME280;53672;48.176;16.338;2023-02-28T09:07:31;100254.44;;;8.40;43.58
66762;BME280;53672;48.176;16.338;2023-02-28T09:12:33;100256.22;;;8.35;43.20
66762;BME280;53672;48.176;16.338;2023-02-28T09:17:34;100252.59;;;8.29;42.19
66762;BME280;53672;48.176;16.338;2023-02-28T09:22:36;100249.69;;;10.26;38.02
66762;BME280;53672;48.176;16.338;2023-02-28T09:27:36;100256.56;;;9.11;40.33
66762;BME280;53672;48.176;16.338;2023-02-28T09:32:37;100255.91;;;10.48;38.58
66762;BME280;53672;48.176;16.338;2023-02-28T09:37:38;100261.22;;;11.50;36.29
66762;BME280;53672;48.176;16.338;2023-02-28T09:42:39;100257.75;;;9.65;39.73
66762;BME280;53672;48.176;16.338;2023-02-28T09:47:42;100268.97;;;9.62;39.12
66762;BME280;53672;48.176;16.338;2023-02-28T09:52:46;100270.38;;;6.84;45.31
66762;BME280;53672;48.176;16.338;2023-02-28T09:57:50;100269.72;;;5.12;50.30
66762;BME280;53672;48.176;16.338;2023-02-28T10:03:04;100264.06;;;4.64;53.62
66762;BME280;53672;48.176;16.338;2023-02-28T10:08:12;100262.84;;;4.98;51.98
66762;BME280;53672;48.176;16.338;2023-02-28T10:13:20;100266.84;;;7.13;47.63
66762;BME280;53672;48.176;16.338;2023-02-28T10:18:26;100267.69;;;7.95;44.79
66762;BME280;53672;48.176;16.338;2023-02-28T10:23:34;100257.78;;;10.26;39.79
66762;BME280;53672;48.176;16.338;2023-02-28T10:28:34;100252.75;;;13.07;34.70
66762;BME280;53672;48.176;16.338;2023-02-28T10:33:35;100252.75;;;10.56;37.98
66762;BME280;53672;48.176;16.338;2023-02-28T10:38:39;100252.00;;;8.39;42.00
66762;BME280;53672;48.176;16.338;2023-02-28T10:43:40;100243.00;;;13.77;33.26
66762;BME280;53672;48.176;16.338;2023-02-28T10:48:44;100232.56;;;11.86;34.74
66762;BME280;53672;48.176;16.338;2023-02-28T10:53:48;100238.09;;;11.00;37.43
66762;BME280;53672;48.176;16.338;2023-02-28T10:58:52;100230.78;;;12.84;34.39
66762;BME280;53672;48.176;16.338;2023-02-28T11:03:53;100227.41;;;9.37;39.71
66762;BME280;53672;48.176;16.338;2023-02-28T11:08:57;100219.97;;;7.97;44.12
66762;BME280;53672;48.176;16.338;2023-02-28T11:14:04;100206.94;;;7.31;44.38
66762;BME280;53672;48.176;16.338;2023-02-28T11:19:18;100206.38;;;10.32;39.33
66762;BME280;53672;48.176;16.338;2023-02-28T11:24:23;100204.03;;;9.76;39.61
66762;BME280;53672;48.176;16.338;2023-02-28T11:29:26;100189.69;;;8.70;39.51
66762;BME280;53672;48.176;16.338;2023-02-28T11:34:28;100202.81;;;11.07;35.99
66762;BME280;53672;48.176;16.338;2023-02-28T11:39:31;100194.97;;;8.93;40.23
66762;BME280;53672;48.176;16.338;2023-02-28T11:44:43;100176.97;;;8.49;40.26
66762;BME280;53672;48.176;16.338;2023-02-28T11:49:52;100181.41;;;7.29;44.20
66762;BME280;53672;48.176;16.338;2023-02-28T11:55:11;100184.53;;;6.49;45.50
66762;BME280;53672;48.176;16.338;2023-02-28T12:00:25;100180.47;;;7.11;45.22
66762;BME280;53672;48.176;16.338;2023-02-28T12:05:34;100166.72;;;4.91;50.10
66762;BME280;53672;48.176;16.338;2023-02-28T12:10:46;100169.59;;;5.76;48.54
66762;BME280;53672;48.176;16.338;2023-02-28T12:16:13;100163.56;;;5.80;47.46
66762;BME280;53672;48.176;16.338;2023-02-28T12:21:26;100157.84;;;6.13;47.58
66762;BME280;53672;48.176;16.338;2023-02-28T12:26:36;100160.06;;;5.00;49.34
66762;BME280;53672;48.176;16.338;2023-02-28T12:31:41;100149.81;;;4.97;49.84
66762;BME280;53672;48.176;16.338;2023-02-28T12:36:47;100142.47;;;5.36;48.43
66762;BME280;53672;48.176;16.338;2023-02-28T12:41:54;100139.25;;;5.88;47.29
66762;BME280;53672;48.176;16.338;2023-02-28T12:46:59;100133.44;;;6.62;45.34
66762;BME280;53672;48.176;16.338;2023-02-28T12:52:02;100129.69;;;5.74;46.51
66762;BME280;53672;48.176;16.338;2023-02-28T12:57:09;100128.69;;;6.23;44.49
66762;BME280;53672;48.176;16.338;2023-02-28T13:02:34;100123.75;;;6.08;46.12
66762;BME280;53672;48.176;16.338;2023-02-28T13:07:58;100116.69;;;6.79;43.62
66762;BME280;53672;48.176;16.338;2023-02-28T13:13:05;100122.41;;;5.99;45.03
66762;BME280;53672;48.176;16.338;2023-02-28T13:18:27;100123.09;;;5.58;46.10
66762;BME280;53672;48.176;16.338;2023-02-28T13:23:58;100113.88;;;5.73;46.02
66762;BME280;53672;48.176;16.338;2023-02-28T13:29:02;100114.34;;;4.90;47.80
66762;BME280;53672;48.176;16.338;2023-02-28T13:34:11;100112.19;;;5.24;46.50
66762;BME280;53672;48.176;16.338;2023-02-28T13:39:46;100110.03;;;5.87;45.87
66762;BME280;53672;48.176;16.338;2023-02-28T13:45:21;100111.44;;;5.17;46.16
66762;BME280;53672;48.176;16.338;2023-02-28T13:50:27;100121.97;;;4.87;46.96
66762;BME280;53672;48.176;16.338;2023-02-28T13:55:34;100118.84;;;5.15;47.16
66762;BME280;53672;48.176;16.338;2023-02-28T14:00:47;100110.84;;;5.87;45.29
66762;BME280;53672;48.176;16.338;2023-02-28T14:06:18;100115.59;;;5.85;44.63
66762;BME280;53672;48.176;16.338;2023-02-28T14:11:31;100119.66;;;6.06;44.95
66762;BME280;53672;48.176;16.338;2023-02-28T14:16:39;100114.63;;;5.61;45.37
66762;BME280;53672;48.176;16.338;2023-02-28T14:21:50;100111.00;;;5.92;45.30
66762;BME280;53672;48.176;16.338;2023-02-28T14:27:11;100109.72;;;5.95;45.40
66762;BME280;53672;48.176;16.338;2023-02-28T14:32:26;100098.13;;;5.28;46.92
66762;BME280;53672;48.176;16.338;2023-02-28T14:37:30;100088.69;;;5.07;47.77
66762;BME280;53672;48.176;16.338;2023-02-28T14:42:34;100090.47;;;4.95;48.20
66762;BME280;53672;48.176;16.338;2023-02-28T14:47:36;100094.22;;;4.63;48.19
66762;BME280;53672;48.176;16.338;2023-02-28T14:52:36;100093.00;;;4.66;48.77
66762;BME280;53672;48.176;16.338;2023-02-28T14:57:41;100091.44;;;5.01;48.01
66762;BME280;53672;48.176;16.338;2023-02-28T15:02:43;100093.59;;;4.68;48.04
66762;BME280;53672;48.176;16.338;2023-02-28T15:07:44;100097.22;;;4.73;47.72
66762;BME280;53672;48.176;16.338;2023-02-28T15:12:49;100096.53;;;4.84;48.32
66762;BME280;53672;48.176;16.338;2023-02-28T15:17:56;100099.44;;;4.83;48.67
66762;BME280;53672;48.176;16.338;2023-02-28T15:22:57;100100.22;;;4.83;48.90
66762;BME280;53672;48.176;16.338;2023-02-28T15:27:58;100100.97;;;4.90;48.68
66762;BME280;53672;48.176;16.338;2023-02-28T15:33:06;100095.50;;;4.85;49.08
66762;BME280;53672;48.176;16.338;2023-02-28T15:38:17;100101.00;;;4.66;50.64
66762;BME280;53672;48.176;16.338;2023-02-28T15:43:23;100107.25;;;4.78;50.62
66762;BME280;53672;48.176;16.338;2023-02-28T15:48:28;100103.56;;;4.54;50.58
66762;BME280;53672;48.176;16.338;2023-02-28T15:53:32;100107.00;;;4.61;51.20
66762;BME280;53672;48.176;16.338;2023-02-28T15:58:35;100105.69;;;4.70;51.08
66762;BME280;53672;48.176;16.338;2023-02-28T16:03:44;100102.56;;;4.73;51.18
66762;BME280;53672;48.176;16.338;2023-02-28T16:08:45;100105.91;;;4.69;50.95
66762;BME280;53672;48.176;16.338;2023-02-28T16:13:46;100116.66;;;4.62;51.39
66762;BME280;53672;48.176;16.338;2023-02-28T16:18:48;100115.50;;;4.51;51.89
66762;BME280;53672;48.176;16.338;2023-02-28T16:23:48;100107.00;;;4.30;52.28
66762;BME280;53672;48.176;16.338;2023-02-28T16:28:49;100106.75;;;4.38;51.92
66762;BME280;53672;48.176;16.338;2023-02-28T16:33:52;100111.31;;;4.31;51.66
66762;BME280;53672;48.176;16.338;2023-02-28T16:38:54;100118.16;;;4.20;52.17
66762;BME280;53672;48.176;16.338;2023-02-28T16:43:57;100133.84;;;4.03;52.55
66762;BME280;53672;48.176;16.338;2023-02-28T16:49:00;100130.84;;;3.93;52.36
66762;BME280;53672;48.176;16.338;2023-02-28T16:54:01;100133.13;;;3.83;53.22
66762;BME280;53672;48.176;16.338;2023-02-28T16:59:03;100133.13;;;3.77;53.01
66762;BME280;53672;48.176;16.338;2023-02-28T17:04:05;100140.56;;;3.68;53.18
66762;BME280;53672;48.176;16.338;2023-02-28T17:09:05;100147.75;;;3.61;54.10
66762;BME280;53672;48.176;16.338;2023-02-28T17:14:06;100148.41;;;3.50;54.45
66762;BME280;53672;48.176;16.338;2023-02-28T17:19:11;100152.94;;;3.43;54.71
66762;BME280;53672;48.176;16.338;2023-02-28T17:24:12;100152.56;;;3.26;55.22
66762;BME280;53672;48.176;16.338;2023-02-28T17:29:14;100158.13;;;3.25;56.01
66762;BME280;53672;48.176;16.338;2023-02-28T17:34:17;100151.34;;;3.22;55.94
66762;BME280;53672;48.176;16.338;2023-02-28T17:39:19;100156.09;;;3.07;56.31
66762;BME280;53672;48.176;16.338;2023-02-28T17:44:19;100149.53;;;2.96;57.19
66762;BME280;53672;48.176;16.338;2023-02-28T17:49:22;100157.09;;;3.06;57.36
66762;BME280;53672;48.176;16.338;2023-02-28T17:54:23;100155.69;;;3.03;57.04
66762;BME280;53672;48.176;16.338;2023-02-28T17:59:24;100159.16;;;2.97;56.70
66762;BME280;53672;48.176;16.338;2023-02-28T18:04:26;100162.84;;;2.96;57.01
66762;BME280;53672;48.176;16.338;2023-02-28T18:09:27;100168.34;;;3.01;57.32
66762;BME280;53672;48.176;16.338;2023-02-28T18:14:28;100166.34;;;2.90;57.51
66762;BME280;53672;48.176;16.338;2023-02-28T18:19:30;100165.09;;;2.80;57.86
66762;BME280;53672;48.176;16.338;2023-02-28T18:24:30;100168.59;;;2.80;58.14
66762;BME280;53672;48.176;16.338;2023-02-28T18:29:32;100166.13;;;2.85;56.99
66762;BME280;53672;48.176;16.338;2023-02-28T18:34:34;100165.53;;;2.77;56.03
66762;BME280;53672;48.176;16.338;2023-02-28T18:39:39;100162.22;;;2.62;55.78
66762;BME280;53672;48.176;16.338;2023-02-28T18:44:41;100164.88;;;2.48;56.84
66762;BME280;53672;48.176;16.338;2023-02-28T18:49:44;100161.56;;;2.40;56.52
66762;BME280;53672;48.176;16.338;2023-02-28T18:54:45;100160.53;;;2.28;57.67
66762;BME280;53672;48.176;16.338;2023-02-28T18:59:46;100159.31;;;2.30;57.10
66762;BME280;53672;48.176;16.338;2023-02-28T19:04:49;100170.16;;;2.22;57.46
66762;BME280;53672;48.176;16.338;2023-02-28T19:09:50;100161.31;;;2.09;58.03
66762;BME280;53672;48.176;16.338;2023-02-28T19:14:51;100168.50;;;2.21;56.96
66762;BME280;53672;48.176;16.338;2023-02-28T19:19:54;100166.22;;;2.12;57.96
66762;BME280;53672;48.176;16.338;2023-02-28T19:24:55;100172.97;;;2.08;57.82
66762;BME280;53672;48.176;16.338;2023-02-28T19:29:56;100178.63;;;1.91;58.72
66762;BME280;53672;48.176;16.338;2023-02-28T19:34:59;100167.81;;;1.99;58.30
66762;BME280;53672;48.176;16.338;2023-02-28T19:40:00;100174.72;;;1.87;58.19
66762;BME280;53672;48.176;16.338;2023-02-28T19:45:03;100184.47;;;1.74;59.37
66762;BME280;53672;48.176;16.338;2023-02-28T19:50:08;100183.59;;;1.60;59.37
66762;BME280;53672;48.176;16.338;2023-02-28T19:55:09;100181.38;;;1.64;60.00
66762;BME280;53672;48.176;16.338;2023-02-28T20:00:12;100184.72;;;1.44;60.58
66762;BME280;53672;48.176;16.338;2023-02-28T20:05:15;100183.28;;;1.42;61.47
66762;BME280;53672;48.176;16.338;2023-02-28T20:10:17;100180.09;;;1.25;61.80
66762;BME280;53672;48.176;16.338;2023-02-28T20:15:17;100182.84;;;1.11;62.22
66762;BME280;53672;48.176;16.338;2023-02-28T20:20:20;100185.81;;;0.94;63.16
66762;BME280;53672;48.176;16.338;2023-02-28T20:25:21;100196.16;;;0.89;63.46
66762;BME280;53672;48.176;16.338;2023-02-28T20:30:22;100194.22;;;0.77;64.43
66762;BME280;53672;48.176;16.338;2023-02-28T20:35:25;100191.63;;;0.83;64.43
66762;BME280;53672;48.176;16.338;2023-02-28T20:40:26;100190.31;;;0.73;65.05
66762;BME280;53672;48.176;16.338;2023-02-28T20:45:27;100189.50;;;0.51;66.38
66762;BME280;53672;48.176;16.338;2023-02-28T20:50:30;100190.56;;;0.35;67.51
66762;BME280;53672;48.176;16.338;2023-02-28T20:55:31;100175.34;;;0.23;68.24
66762;BME280;53672;48.176;16.338;2023-02-28T21:00:32;100174.94;;;0.05;69.45
66762;BME280;53672;48.176;16.338;2023-02-28T21:05:35;100171.50;;;-0.11;70.13
66762;BME280;53672;48.176;16.338;2023-02-28T21:10:35;100172.53;;;-0.26;71.93
66762;BME280;53672;48.176;16.338;2023-02-28T21:15:36;100176.00;;;-0.40;72.23
66762;BME280;53672;48.176;16.338;2023-02-28T21:20:41;100168.34;;;-0.50;73.25
66762;BME280;53672;48.176;16.338;2023-02-28T21:25:42;100168.44;;;-0.58;74.04
66762;BME280;53672;48.176;16.338;2023-02-28T21:30:43;100164.25;;;-0.67;74.33
66762;BME280;53672;48.176;16.338;2023-02-28T21:35:45;100158.69;;;-0.72;75.42
66762;BME280;53672;48.176;16.338;2023-02-28T21:40:45;100162.69;;;-0.76;75.29
66762;BME280;53672;48.176;16.338;2023-02-28T21:45:46;100162.97;;;-0.86;75.49
66762;BME280;53672;48.176;16.338;2023-02-28T21:50:55;100166.53;;;-0.93;76.82
66762;BME280;53672;48.176;16.338;2023-02-28T21:55:59;100157.28;;;-0.97;77.85
66762;BME280;53672;48.176;16.338;2023-02-28T22:01:04;100158.13;;;-0.97;78.17
66762;BME280;53672;48.176;16.338;2023-02-28T22:06:14;100162.28;;;-1.03;78.29
66762;BME280;53672;48.176;16.338;2023-02-28T22:11:15;100170.13;;;-1.09;78.95
66762;BME280;53672;48.176;16.338;2023-02-28T22:16:18;100165.41;;;-1.14;78.76
66762;BME280;53672;48.176;16.338;2023-02-28T22:21:21;100166.75;;;-1.18;78.90
66762;BME280;53672;48.176;16.338;2023-02-28T22:26:22;100169.56;;;-1.19;79.16
66762;BME280;53672;48.176;16.338;2023-02-28T22:31:25;100171.09;;;-1.25;79.08
66762;BME280;53672;48.176;16.338;2023-02-28T22:36:28;100177.38;;;-1.26;78.75
66762;BME280;53672;48.176;16.338;2023-02-28T22:41:29;100181.09;;;-1.35;78.38
66762;BME280;53672;48.176;16.338;2023-02-28T22:46:30;100179.00;;;-1.39;79.35
66762;BME280;53672;48.176;16.338;2023-02-28T22:51:33;100177.06;;;-1.45;80.17
66762;BME280;53672;48.176;16.338;2023-02-28T22:56:34;100182.88;;;-1.50;78.95
66762;BME280;53672;48.176;16.338;2023-02-28T23:01:34;100164.13;;;-1.63;80.25
66762;BME280;53672;48.176;16.338;2023-02-28T23:06:37;100171.25;;;-1.64;81.21
66762;BME280;53672;48.176;16.338;2023-02-28T23:11:40;100171.25;;;-1.64;80.44
66762;BME280;53672;48.176;16.338;2023-02-28T23:16:42;100169.25;;;-1.62;80.70
66762;BME280;53672;48.176;16.338;2023-02-28T23:21:45;100169.38;;;-1.55;80.11
66762;BME280;53672;48.176;16.338;2023-02-28T23:26:50;100171.00;;;-1.54;79.80
66762;BME280;53672;48.176;16.338;2023-02-28T23:31:50;100174.88;;;-1.42;78.69
66762;BME280;53672;48.176;16.338;2023-02-28T23:36:53;100170.34;;;-1.33;78.14
66762;BME280;53672;48.176;16.338;2023-02-28T23:41:54;100172.09;;;-1.26;77.81
66762;BME280;53672;48.176;16.338;2023-02-28T23:46:55;100163.69;;;-1.29;76.58
66762;BME280;53672;48.176;16.338;2023-02-28T23:51:57;100163.16;;;-1.25;76.33
66762;BME280;53672;48.176;16.338;2023-02-28T23:56:57;100171.69;;;-1.15;75.73
